createdAt,value
2023-07-10T00:00:00.430Z,97349.25
2023-07-10T00:02:26.904Z,97355.13
2023-07-10T00:04:53.337Z,97360.72
2023-07-10T00:07:19.956Z,97357.81
2023-07-10T00:09:46.394Z,97365.59
2023-07-10T00:12:12.859Z,97365.09
2023-07-10T00:14:39.305Z,97367.53
2023-07-10T00:17:06.585Z,97366.25
2023-07-10T00:19:35.453Z,97365.09
2023-07-10T00:22:01.991Z,97367.22
2023-07-10T00:24:30.676Z,97368.16
2023-07-10T00:26:57.255Z,97370.88
2023-07-10T00:29:23.760Z,97382.28
2023-07-10T00:31:50.216Z,97380.56
2023-07-10T00:34:16.829Z,97367.88
2023-07-10T00:36:43.357Z,97376.38
2023-07-10T00:39:09.791Z,97367.53
2023-07-10T00:41:36.238Z,97379.13
2023-07-10T00:44:02.666Z,97374.47
2023-07-10T00:46:31.430Z,97381.50
2023-07-10T00:48:57.889Z,97375.41
2023-07-10T00:51:24.430Z,97375.59
2023-07-10T00:53:50.861Z,97380.41
2023-07-10T00:56:18.427Z,97381.19
2023-07-10T00:58:44.926Z,97372.66
2023-07-10T01:01:12.654Z,97385.31
2023-07-10T01:03:39.154Z,97380.97
2023-07-10T01:06:06.129Z,97390.81
2023-07-10T01:08:32.901Z,97384.06
2023-07-10T01:11:01.379Z,97384.38
2023-07-10T01:13:27.874Z,97388.50
2023-07-10T01:15:54.371Z,97379.66
2023-07-10T01:18:20.977Z,97384.63
2023-07-10T01:20:47.603Z,97388.66
2023-07-10T01:23:14.193Z,97379.50
2023-07-10T01:25:40.611Z,97388.66
2023-07-10T01:28:07.060Z,97391.34
2023-07-10T01:30:33.518Z,97387.13
2023-07-10T01:32:59.964Z,97387.50
2023-07-10T01:35:26.484Z,97388.53
2023-07-10T01:37:52.920Z,97389.56
2023-07-10T01:40:19.488Z,97390.69
2023-07-10T01:42:45.934Z,97385.56
2023-07-10T01:45:12.368Z,97377.19
2023-07-10T01:47:38.897Z,97380.25
2023-07-10T01:50:05.384Z,97383.63
2023-07-10T01:52:32.033Z,97379.91
2023-07-10T01:54:58.538Z,97378.50
2023-07-10T01:57:25.203Z,97378.78
2023-07-10T01:59:51.789Z,97383.03
2023-07-10T02:02:18.746Z,97379.81
2023-07-10T02:04:47.120Z,97377.41
2023-07-10T02:07:13.683Z,97386.84
2023-07-10T02:09:40.141Z,97381.88
2023-07-10T02:12:06.736Z,97386.91
2023-07-10T02:14:33.161Z,97387.44
2023-07-10T02:16:59.690Z,97390.50
2023-07-10T02:19:26.209Z,97385.69
2023-07-10T02:21:52.669Z,97391.63
2023-07-10T02:24:19.115Z,97384.41
2023-07-10T02:26:45.683Z,97381.03
2023-07-10T02:29:12.237Z,97375.91
2023-07-10T02:31:38.904Z,97371.72
2023-07-10T02:34:05.380Z,97377.81
2023-07-10T02:36:31.967Z,97378.47
2023-07-10T02:38:58.403Z,97371.56
2023-07-10T02:41:24.825Z,97373.16
2023-07-10T02:43:51.431Z,97368.66
2023-07-10T02:46:17.952Z,97383.13
2023-07-10T02:48:44.461Z,97378.94
2023-07-10T02:51:10.901Z,97381.03
2023-07-10T02:53:37.361Z,97385.06
2023-07-10T02:56:04.086Z,97383.75
2023-07-10T02:58:30.775Z,97383.41
2023-07-10T03:00:57.327Z,97387.16
2023-07-10T03:03:23.803Z,97388.72
2023-07-10T03:05:50.302Z,97391.03
2023-07-10T03:08:16.773Z,97395.81
2023-07-10T03:10:43.278Z,97389.31
2023-07-10T03:13:09.709Z,97386.72
2023-07-10T03:15:36.178Z,97387.59
2023-07-10T03:18:02.908Z,97382.81
2023-07-10T03:20:29.541Z,97379.66
2023-07-10T03:22:55.996Z,97379.75
2023-07-10T03:25:22.688Z,97383.13
2023-07-10T03:27:50.590Z,97391.78
2023-07-10T03:30:18.319Z,97398.69
2023-07-10T03:32:44.946Z,97404.00
2023-07-10T03:35:11.363Z,97401.25
2023-07-10T03:37:38.051Z,97405.63
2023-07-10T03:40:04.601Z,97407.34
2023-07-10T03:42:31.139Z,97413.09
2023-07-10T03:44:57.580Z,97411.09
2023-07-10T03:47:24.048Z,97414.81
2023-07-10T03:49:50.512Z,97416.38
2023-07-10T03:52:17.089Z,97420.31
2023-07-10T03:54:43.637Z,97423.09
2023-07-10T03:57:11.864Z,97413.69
2023-07-10T03:59:38.277Z,97413.75
2023-07-10T04:02:04.786Z,97429.19
2023-07-10T04:04:31.301Z,97437.72
2023-07-10T04:06:58.222Z,97437.72
2023-07-10T04:09:24.707Z,97447.47
2023-07-10T04:11:51.129Z,97449.28
2023-07-10T04:14:17.605Z,97449.31
2023-07-10T04:16:44.117Z,97445.22
2023-07-10T04:19:10.610Z,97448.91
2023-07-10T04:21:37.043Z,97442.75
2023-07-10T04:24:03.573Z,97445.25
2023-07-10T04:26:30.017Z,97445.91
2023-07-10T04:28:56.499Z,97446.44
2023-07-10T04:31:23.100Z,97449.75
2023-07-10T04:33:49.596Z,97449.16
2023-07-10T04:36:16.015Z,97444.97
2023-07-10T04:38:42.585Z,97460.25
2023-07-10T04:41:09.042Z,97448.97
2023-07-10T04:43:35.478Z,97454.00
2023-07-10T04:46:02.188Z,97457.19
2023-07-10T04:48:28.949Z,97462.69
2023-07-10T04:50:55.697Z,97458.34
2023-07-10T04:53:22.182Z,97468.47
2023-07-10T04:55:48.625Z,97472.50
2023-07-10T04:58:16.190Z,97476.38
2023-07-10T05:00:42.619Z,97475.88
2023-07-10T05:03:09.162Z,97478.44
2023-07-10T05:05:35.859Z,97477.16
2023-07-10T05:08:02.340Z,97483.91
2023-07-10T05:10:28.843Z,97480.84
2023-07-10T05:12:55.305Z,97483.25
2023-07-10T05:15:21.871Z,97485.34
2023-07-10T05:17:48.370Z,97491.78
2023-07-10T05:20:14.861Z,97493.72
2023-07-10T05:22:41.278Z,97486.94
2023-07-10T05:25:07.723Z,97482.59
2023-07-10T05:27:34.456Z,97486.09
2023-07-10T05:30:00.976Z,97479.19
2023-07-10T05:32:27.525Z,97485.09
2023-07-10T05:34:54.037Z,97479.31
2023-07-10T05:37:20.699Z,97476.22
2023-07-10T05:39:47.163Z,97479.53
2023-07-10T05:42:13.760Z,97477.75
2023-07-10T05:44:40.196Z,97477.81
2023-07-10T05:47:06.868Z,97482.81
2023-07-10T05:49:33.394Z,97481.28
2023-07-10T05:51:59.888Z,97489.63
2023-07-10T05:54:26.426Z,97489.56
2023-07-10T05:56:52.886Z,97483.81
2023-07-10T05:59:19.441Z,97487.13
2023-07-10T06:01:46.227Z,97488.13
2023-07-10T06:04:15.986Z,97495.72
2023-07-10T06:06:42.644Z,97493.72
2023-07-10T06:09:09.072Z,97491.75
2023-07-10T06:11:35.576Z,97501.00
2023-07-10T06:14:02.141Z,97491.53
2023-07-10T06:16:28.703Z,97503.59
2023-07-10T06:18:55.282Z,97492.88
2023-07-10T06:21:21.794Z,97500.53
2023-07-10T06:23:48.594Z,97496.22
2023-07-10T06:26:15.188Z,97500.09
2023-07-10T06:28:41.620Z,97500.41
2023-07-10T06:31:08.311Z,97502.97
2023-07-10T06:33:34.840Z,97508.00
2023-07-10T06:36:01.413Z,97505.34
2023-07-10T06:38:27.930Z,97507.88
2023-07-10T06:40:55.062Z,97503.59
2023-07-10T06:43:21.548Z,97512.41
2023-07-10T06:45:48.185Z,97513.22
2023-07-10T06:48:16.726Z,97511.28
2023-07-10T06:50:43.292Z,97510.22
2023-07-10T06:53:24.922Z,97503.81
2023-07-10T06:55:53.523Z,97503.09
2023-07-10T06:58:22.779Z,97508.88
2023-07-10T07:00:49.296Z,97501.19
2023-07-10T07:03:19.103Z,97501.69
2023-07-10T07:05:45.828Z,97506.75
2023-07-10T07:08:13.564Z,97510.84
2023-07-10T07:10:40.012Z,97513.44
2023-07-10T07:13:06.613Z,97512.84
2023-07-10T07:15:33.067Z,97511.69
2023-07-10T07:17:59.626Z,97512.94
2023-07-10T07:20:26.261Z,97509.41
2023-07-10T07:22:52.744Z,97519.31
2023-07-10T07:25:19.204Z,97518.91
2023-07-10T07:27:45.715Z,97521.47
2023-07-10T07:30:12.266Z,97520.81
2023-07-10T07:32:38.809Z,97521.75
2023-07-10T07:35:05.468Z,97519.16
2023-07-10T07:37:31.987Z,97518.34
2023-07-10T07:39:58.433Z,97520.66
2023-07-10T07:42:24.932Z,97519.00
2023-07-10T07:44:51.519Z,97518.69
2023-07-10T07:47:17.994Z,97521.09
2023-07-10T07:49:44.547Z,97525.81
2023-07-10T07:52:11.156Z,97529.00
2023-07-10T07:54:37.608Z,97521.38
2023-07-10T07:57:04.029Z,97529.31
2023-07-10T07:59:30.495Z,97518.13
2023-07-10T08:01:57.133Z,97516.97
2023-07-10T08:04:23.651Z,97514.69
2023-07-10T08:06:50.316Z,97507.94
2023-07-10T08:09:16.889Z,97507.28
2023-07-10T08:11:43.533Z,97513.31
2023-07-10T08:14:10.071Z,97509.19
2023-07-10T08:16:36.776Z,97509.13
2023-07-10T08:19:03.301Z,97514.78
2023-07-10T08:21:29.745Z,97504.81
2023-07-10T08:23:56.206Z,97507.00
2023-07-10T08:26:22.653Z,97502.50
2023-07-10T08:28:49.106Z,97511.47
2023-07-10T08:31:15.656Z,97507.91
2023-07-10T08:33:42.097Z,97512.75
2023-07-10T08:36:08.667Z,97510.53
2023-07-10T08:38:35.214Z,97509.94
2023-07-10T08:41:04.941Z,97511.88
2023-07-10T08:43:31.370Z,97514.53
2023-07-10T08:45:58.022Z,97504.56
2023-07-10T08:48:24.582Z,97511.78
2023-07-10T08:50:51.102Z,97514.88
2023-07-10T08:53:17.603Z,97508.56
2023-07-10T08:55:44.354Z,97507.06
2023-07-10T08:58:10.809Z,97501.25
2023-07-10T09:00:37.227Z,97502.78
2023-07-10T09:03:03.839Z,97502.22
2023-07-10T09:05:30.440Z,97505.19
2023-07-10T09:07:56.892Z,97513.53
2023-07-10T09:10:23.552Z,97511.50
2023-07-10T09:12:51.502Z,97506.97
2023-07-10T09:15:18.006Z,97509.81
2023-07-10T09:17:44.749Z,97508.03
2023-07-10T09:20:11.491Z,97513.38
2023-07-10T09:22:38.107Z,97519.72
2023-07-10T09:25:04.634Z,97511.63
2023-07-10T09:27:31.089Z,97510.56
2023-07-10T09:29:57.536Z,97508.00
2023-07-10T09:32:24.082Z,97513.78
2023-07-10T09:34:50.555Z,97506.59
2023-07-10T09:37:17.004Z,97510.31
2023-07-10T09:39:43.428Z,97503.91
2023-07-10T09:42:12.927Z,97503.03
2023-07-10T09:44:39.358Z,97501.50
2023-07-10T09:47:05.798Z,97500.53
2023-07-10T09:49:32.225Z,97499.47
2023-07-10T09:51:58.757Z,97501.78
2023-07-10T09:54:25.222Z,97500.00
2023-07-10T09:56:51.699Z,97498.84
2023-07-10T09:59:18.139Z,97498.41
2023-07-10T10:01:44.850Z,97500.16
2023-07-10T10:04:11.448Z,97500.53
2023-07-10T10:06:38.028Z,97491.47
2023-07-10T10:09:04.501Z,97491.75
2023-07-10T10:11:30.900Z,97494.66
2023-07-10T10:13:57.767Z,97491.16
2023-07-10T10:16:24.605Z,97487.84
2023-07-10T10:18:51.179Z,97488.69
2023-07-10T10:21:17.804Z,97479.28
2023-07-10T10:23:44.388Z,97482.19
2023-07-10T10:26:10.899Z,97476.19
2023-07-10T10:28:37.351Z,97475.47
2023-07-10T10:31:03.854Z,97480.38
2023-07-10T10:33:30.356Z,97465.69
2023-07-10T10:35:57.126Z,97465.78
2023-07-10T10:38:23.871Z,97462.41
2023-07-10T10:40:50.324Z,97467.56
2023-07-10T10:43:17.055Z,97472.69
2023-07-10T10:45:43.589Z,97456.72
2023-07-10T10:48:10.051Z,97456.66
2023-07-10T10:50:36.665Z,97456.06
2023-07-10T10:53:03.140Z,97450.19
2023-07-10T10:55:29.558Z,97445.50
2023-07-10T10:57:55.995Z,97451.97
2023-07-10T11:00:22.535Z,97441.97
2023-07-10T11:02:49.733Z,97440.69
2023-07-10T11:05:16.570Z,97439.25
2023-07-10T11:07:43.104Z,97435.31
2023-07-10T11:10:09.582Z,97438.06
2023-07-10T11:12:36.098Z,97426.34
2023-07-10T11:15:04.372Z,97425.63
2023-07-10T11:17:31.000Z,97423.25
2023-07-10T11:19:57.429Z,97426.72
2023-07-10T11:22:23.928Z,97424.63
2023-07-10T11:24:50.429Z,97417.13
2023-07-10T11:27:17.062Z,97423.06
2023-07-10T11:29:43.587Z,97416.66
2023-07-10T11:32:09.996Z,97408.75
2023-07-10T11:34:36.479Z,97407.97
2023-07-10T11:37:02.965Z,97410.66
2023-07-10T11:39:29.581Z,97402.97
2023-07-10T11:41:56.028Z,97405.06
2023-07-10T11:44:22.651Z,97403.22
2023-07-10T11:46:49.174Z,97404.59
2023-07-10T11:49:15.781Z,97408.03
2023-07-10T11:51:42.274Z,97393.91
2023-07-10T11:54:08.708Z,97396.97
2023-07-10T11:56:35.184Z,97386.72
2023-07-10T11:59:01.818Z,97386.00
2023-07-10T12:01:28.384Z,97385.94
2023-07-10T12:03:54.939Z,97381.31
2023-07-10T12:06:21.452Z,97383.06
2023-07-10T12:08:47.916Z,97377.97
2023-07-10T12:11:14.364Z,97375.19
2023-07-10T12:13:40.823Z,97380.94
2023-07-10T12:16:07.706Z,97377.34
2023-07-10T12:18:34.294Z,97370.84
2023-07-10T12:21:00.872Z,97363.66
2023-07-10T12:23:27.344Z,97366.31
2023-07-10T12:25:54.069Z,97363.47
2023-07-10T12:28:25.654Z,97354.53
2023-07-10T12:30:54.023Z,97353.38
2023-07-10T12:33:20.695Z,97348.72
2023-07-10T12:35:47.141Z,97341.03
2023-07-10T12:38:13.707Z,97343.25
2023-07-10T12:40:40.305Z,97345.50
2023-07-10T12:43:06.729Z,97345.09
2023-07-10T12:45:33.183Z,97346.91
2023-07-10T12:47:59.886Z,97326.88
2023-07-10T12:50:26.334Z,97328.09
2023-07-10T12:52:52.780Z,97330.16
2023-07-10T12:55:19.534Z,97319.09
2023-07-10T12:57:46.102Z,97326.41
2023-07-10T13:00:12.663Z,97324.31
2023-07-10T13:02:39.403Z,97320.00
2023-07-10T13:05:06.024Z,97318.09
2023-07-10T13:07:32.711Z,97313.13
2023-07-10T13:09:59.146Z,97327.56
2023-07-10T13:12:25.609Z,97315.44
2023-07-10T13:14:52.177Z,97310.69
2023-07-10T13:17:18.829Z,97317.28
2023-07-10T13:19:55.067Z,97314.84
2023-07-10T13:22:29.639Z,97305.00
2023-07-10T13:24:56.312Z,97310.31
2023-07-10T13:27:23.377Z,97304.97
2023-07-10T13:29:50.147Z,97307.41
2023-07-10T13:32:16.887Z,97304.75
2023-07-10T13:34:43.491Z,97304.75
2023-07-10T13:37:09.965Z,97310.03
2023-07-10T13:39:36.408Z,97309.97
2023-07-10T13:42:02.912Z,97299.69
2023-07-10T13:44:29.486Z,97293.22
2023-07-10T13:46:56.497Z,97294.00
2023-07-10T13:49:23.047Z,97297.31
2023-07-10T13:51:49.547Z,97293.94
2023-07-10T13:54:16.089Z,97291.34
2023-07-10T13:56:42.634Z,97289.78
2023-07-10T13:59:09.094Z,97287.09
2023-07-10T14:01:35.623Z,97284.31
2023-07-10T14:04:02.120Z,97270.47
2023-07-10T14:06:28.867Z,97276.53
2023-07-10T14:08:55.444Z,97268.06
2023-07-10T14:11:21.939Z,97272.16
2023-07-10T14:13:48.497Z,97270.81
2023-07-10T14:16:14.967Z,97267.22
2023-07-10T14:18:41.459Z,97266.09
2023-07-10T14:21:08.342Z,97267.78
2023-07-10T14:23:34.959Z,97273.59
2023-07-10T14:26:02.925Z,97276.06
2023-07-10T14:28:30.146Z,97267.06
2023-07-10T14:30:56.624Z,97266.84
2023-07-10T14:33:23.096Z,97270.75
2023-07-10T14:35:51.164Z,97263.78
2023-07-10T14:38:20.052Z,97262.72
2023-07-10T14:40:46.677Z,97249.03
2023-07-10T14:43:13.130Z,97251.00
2023-07-10T14:45:39.875Z,97255.25
2023-07-10T14:48:06.324Z,97258.31
2023-07-10T14:50:33.047Z,97256.06
2023-07-10T14:52:59.529Z,97249.84
2023-07-10T14:55:26.125Z,97253.50
2023-07-10T14:57:52.653Z,97252.69
2023-07-10T15:00:19.275Z,97252.41
2023-07-10T15:02:46.031Z,97245.66
2023-07-10T15:05:12.597Z,97236.50
2023-07-10T15:07:41.331Z,97226.19
2023-07-10T15:10:24.147Z,97236.75
2023-07-10T15:12:52.793Z,97224.56
2023-07-10T15:15:19.263Z,97228.22
2023-07-10T15:17:45.834Z,97237.75
2023-07-10T15:20:12.299Z,97231.50
2023-07-10T15:22:38.844Z,97233.34
2023-07-10T15:25:05.293Z,97217.13
2023-07-10T15:27:31.779Z,97222.53
2023-07-10T15:29:58.342Z,97217.13
2023-07-10T15:32:24.792Z,97213.81
2023-07-10T15:34:51.259Z,97219.53
2023-07-10T15:37:20.011Z,97208.25
2023-07-10T15:39:46.762Z,97206.94
2023-07-10T15:42:13.267Z,97215.81
2023-07-10T15:44:39.822Z,97211.00
2023-07-10T15:47:06.406Z,97202.06
2023-07-10T15:49:32.922Z,97208.19
2023-07-10T15:51:59.506Z,97205.00
2023-07-10T15:54:26.069Z,97201.44
2023-07-10T15:56:52.793Z,97198.00
2023-07-10T15:59:19.275Z,97200.69
2023-07-10T16:01:45.796Z,97196.06
2023-07-10T16:04:12.241Z,97183.56
2023-07-10T16:06:40.139Z,97191.38
2023-07-10T16:09:07.044Z,97192.66
2023-07-10T16:11:33.595Z,97187.91
2023-07-10T16:14:00.127Z,97192.38
2023-07-10T16:16:26.675Z,97190.47
2023-07-10T16:18:53.202Z,97194.53
2023-07-10T16:21:19.632Z,97197.06
2023-07-10T16:23:46.208Z,97198.44
2023-07-10T16:26:12.698Z,97188.72
2023-07-10T16:28:39.228Z,97189.09
2023-07-10T16:31:06.166Z,97194.63
2023-07-10T16:33:32.881Z,97186.41
2023-07-10T16:35:59.344Z,97193.88
2023-07-10T16:38:25.796Z,97197.63
2023-07-10T16:40:52.270Z,97186.50
2023-07-10T16:43:18.752Z,97192.59
2023-07-10T16:45:45.165Z,97188.28
2023-07-10T16:48:20.602Z,97177.63
2023-07-10T16:50:47.046Z,97184.47
2023-07-10T16:53:13.464Z,97187.22
2023-07-10T16:55:39.953Z,97191.13
2023-07-10T16:58:06.358Z,97187.41
2023-07-10T17:00:32.814Z,97178.50
2023-07-10T17:02:59.431Z,97169.25
2023-07-10T17:05:26.097Z,97182.16
2023-07-10T17:07:52.560Z,97174.31
2023-07-10T17:10:19.186Z,97176.75
2023-07-10T17:12:45.752Z,97179.56
2023-07-10T17:15:12.293Z,97178.38
2023-07-10T17:17:38.722Z,97180.69
2023-07-10T17:20:05.197Z,97182.91
2023-07-10T17:22:31.624Z,97181.72
2023-07-10T17:24:58.086Z,97169.59
2023-07-10T17:27:24.595Z,97186.03
2023-07-10T17:29:51.082Z,97182.72
2023-07-10T17:32:17.525Z,97168.53
2023-07-10T17:34:44.005Z,97170.19
2023-07-10T17:37:10.527Z,97170.34
2023-07-10T17:39:37.078Z,97171.00
2023-07-10T17:42:03.538Z,97175.59
2023-07-10T17:44:30.092Z,97171.81
2023-07-10T17:46:56.584Z,97167.63
2023-07-10T17:49:23.127Z,97172.78
2023-07-10T17:51:49.759Z,97178.63
2023-07-10T17:54:16.342Z,97176.84
2023-07-10T17:56:42.825Z,97169.84
2023-07-10T17:59:12.393Z,97170.66
2023-07-10T18:01:38.978Z,97175.72
2023-07-10T18:04:05.460Z,97178.44
2023-07-10T18:06:31.982Z,97173.81
2023-07-10T18:08:58.423Z,97174.31
2023-07-10T18:11:24.890Z,97173.84
2023-07-10T18:13:51.574Z,97171.53
2023-07-10T18:16:18.066Z,97179.31
2023-07-10T18:18:44.569Z,97171.50
2023-07-10T18:21:11.122Z,97166.34
2023-07-10T18:23:37.585Z,97164.44
2023-07-10T18:26:04.111Z,97167.13
2023-07-10T18:28:30.645Z,97171.44
2023-07-10T18:30:57.064Z,97172.84
2023-07-10T18:33:23.546Z,97171.44
2023-07-10T18:35:50.038Z,97171.47
2023-07-10T18:38:16.690Z,97159.16
2023-07-10T18:40:43.141Z,97158.94
2023-07-10T18:43:09.554Z,97170.34
2023-07-10T18:45:36.069Z,97167.00
2023-07-10T18:48:02.491Z,97154.72
2023-07-10T18:50:28.964Z,97164.34
2023-07-10T18:52:55.411Z,97153.66
2023-07-10T18:55:21.870Z,97156.56
2023-07-10T18:57:48.315Z,97156.03
2023-07-10T19:02:45.109Z,97154.94
2023-07-10T19:05:11.680Z,97164.97
2023-07-10T19:07:38.112Z,97155.75
2023-07-10T19:10:04.556Z,97160.91
2023-07-10T19:12:31.080Z,97150.69
2023-07-10T19:15:00.631Z,97151.00
2023-07-10T19:17:27.141Z,97150.69
2023-07-10T19:19:53.567Z,97145.56
2023-07-10T19:22:20.205Z,97148.31
2023-07-10T19:24:46.841Z,97145.47
2023-07-10T19:27:13.417Z,97160.06
2023-07-10T19:29:40.319Z,97155.34
2023-07-10T19:32:06.740Z,97155.59
2023-07-10T19:34:33.170Z,97150.38
2023-07-10T19:36:59.668Z,97155.56
2023-07-10T19:39:26.213Z,97157.19
2023-07-10T19:41:52.749Z,97156.53
2023-07-10T19:44:19.214Z,97156.81
2023-07-10T19:46:45.692Z,97158.53
2023-07-10T19:49:12.175Z,97166.50
2023-07-10T19:51:38.609Z,97169.97
2023-07-10T19:54:05.060Z,97162.13
2023-07-10T19:56:31.597Z,97168.75
2023-07-10T19:58:58.112Z,97179.19
2023-07-10T20:01:26.656Z,97179.63
2023-07-10T20:03:53.121Z,97180.91
2023-07-10T20:06:19.669Z,97177.16
2023-07-10T20:08:46.102Z,97187.50
2023-07-10T20:11:12.537Z,97182.22
2023-07-10T20:13:39.038Z,97179.72
2023-07-10T20:16:06.161Z,97183.47
2023-07-10T20:18:32.927Z,97189.13
2023-07-10T20:20:59.405Z,97182.00
2023-07-10T20:23:25.851Z,97183.81
2023-07-10T20:25:52.386Z,97193.97
2023-07-10T20:28:18.911Z,97195.44
2023-07-10T20:30:45.473Z,97192.47
2023-07-10T20:33:12.137Z,97197.88
2023-07-10T20:35:38.695Z,97191.03
2023-07-10T20:38:05.199Z,97189.72
2023-07-10T20:40:31.806Z,97197.81
2023-07-10T20:42:58.384Z,97201.91
2023-07-10T20:45:24.918Z,97198.41
2023-07-10T20:47:51.444Z,97195.31
2023-07-10T20:50:18.015Z,97191.09
2023-07-10T20:52:44.480Z,97191.03
2023-07-10T20:55:11.018Z,97182.00
2023-07-10T20:57:38.347Z,97200.16
2023-07-10T21:00:04.916Z,97202.09
2023-07-10T21:02:31.364Z,97195.16
2023-07-10T21:04:57.886Z,97194.53
2023-07-10T21:07:24.334Z,97197.16
2023-07-10T21:09:50.894Z,97195.34
2023-07-10T21:12:17.337Z,97199.69
2023-07-10T21:14:43.749Z,97200.97
2023-07-10T21:17:10.203Z,97197.44
2023-07-10T21:19:36.634Z,97204.53
2023-07-10T21:22:03.069Z,97199.31
2023-07-10T21:24:29.495Z,97204.38
2023-07-10T21:26:56.016Z,97205.16
2023-07-10T21:29:22.470Z,97202.78
2023-07-10T21:31:49.090Z,97200.56
2023-07-10T21:34:15.606Z,97201.34
2023-07-10T21:36:42.177Z,97201.16
2023-07-10T21:39:08.630Z,97203.22
2023-07-10T21:41:35.302Z,97200.31
2023-07-10T21:44:01.748Z,97205.44
2023-07-10T21:46:28.335Z,97200.47
2023-07-10T21:48:54.828Z,97198.44
2023-07-10T21:51:23.685Z,97206.34
2023-07-10T21:53:50.133Z,97204.38
2023-07-10T21:56:16.605Z,97201.19
2023-07-10T21:58:43.029Z,97199.66
2023-07-10T22:01:09.470Z,97206.06
2023-07-10T22:03:36.130Z,97206.56
2023-07-10T22:06:02.722Z,97200.94
2023-07-10T22:08:29.276Z,97193.50
2023-07-10T22:10:55.717Z,97192.94
2023-07-10T22:13:22.158Z,97194.63
2023-07-10T22:15:48.656Z,97180.63
2023-07-10T22:18:15.122Z,97181.09
2023-07-10T22:20:41.717Z,97186.19
2023-07-10T22:23:08.274Z,97190.09
2023-07-10T22:25:34.709Z,97184.41
2023-07-10T22:28:01.138Z,97185.81
2023-07-10T22:30:27.565Z,97183.19
2023-07-10T22:32:54.310Z,97188.19
2023-07-10T22:35:20.736Z,97185.13
2023-07-10T22:37:47.246Z,97191.13
2023-07-10T22:40:13.812Z,97186.75
2023-07-10T22:42:40.237Z,97181.50
2023-07-10T22:45:06.982Z,97183.88
2023-07-10T22:47:33.469Z,97189.16
2023-07-10T22:49:59.923Z,97189.38
2023-07-10T22:52:26.371Z,97192.22
2023-07-10T22:54:52.800Z,97187.53
2023-07-10T22:57:19.270Z,97183.06
2023-07-10T22:59:45.914Z,97196.66
2023-07-10T23:02:12.430Z,97185.59
2023-07-10T23:04:41.152Z,97187.75
2023-07-10T23:07:07.601Z,97194.59
2023-07-10T23:09:34.040Z,97190.03
2023-07-10T23:12:00.448Z,97189.47
2023-07-10T23:14:26.929Z,97194.81
2023-07-10T23:16:53.346Z,97193.47
2023-07-10T23:19:19.766Z,97197.56
2023-07-10T23:21:46.214Z,97200.22
2023-07-10T23:24:12.683Z,97201.00
2023-07-10T23:26:39.145Z,97195.41
2023-07-10T23:29:05.594Z,97185.34
2023-07-10T23:31:32.057Z,97186.63
2023-07-10T23:33:58.552Z,97193.94
2023-07-10T23:36:24.955Z,97191.63
2023-07-10T23:38:51.392Z,97191.97
2023-07-10T23:41:18.011Z,97187.88
2023-07-10T23:43:44.500Z,97196.78
2023-07-10T23:46:11.009Z,97196.78
2023-07-10T23:48:37.441Z,97197.09
2023-07-10T23:51:04.110Z,97193.09
2023-07-10T23:53:30.620Z,97194.34
2023-07-10T23:55:57.240Z,97192.03
2023-07-10T23:58:23.681Z,97191.88
